KISQ/ISQ METAR and TAF weather

Enter ICAO airport designator
Station Type Date Time Source
KISQ METAR 2020/04/04 10:56 UTC NOAA

KISQ 041056Z AUTO 35010G16KT 5SM -SN OVC009 01/01 A3004 RMK AO2 P0003 T00100006


Station Type Date Time Source
KISQ Decoded METAR 2020/04/04 10:56 UTC NOAA

Manistique, Schoolcraft County Airport, MI, United States (KISQ) 45-58-29N 086-10-19W
Apr 04, 2020 - 06:56 AM EDT / 2020.04.04 1056 UTC
Wind: from the N (350 degrees) at 12 MPH (10 KT) gusting to 18 MPH (16 KT):0
Visibility: 5 mile(s):0
Sky conditions: overcast
Weather: light snow
Precipitation last hour: 0.03 inches
Temperature: 33.8 F (1.0 C)
Windchill: 24 F (-4 C):1
Dew Point: 33.1 F (0.6 C)
Relative Humidity: 97%
Pressure (altimeter): 30.04 in. Hg (1017 hPa)
ob: KISQ 041056Z AUTO 35010G16KT 5SM -SN OVC009 01/01 A3004 RMK AO2 P0003 T00100006
cycle: 11

Station Type Date Time Source
KISQ TAF UTC NOAA

Error!

Example: see airport list